Aeroporto :
LOGIN :

Iscrizione | Disclaimer

   EN    FR    IT 

 










Sommario :    VFR   VFR Marginale   IFR   IFR Intensivo   IFR Molto Intensivo
Visibilità : 
Base nubi : 
>= 8 km
>= 3000ft
5 / 8 km
1000 / 3000 ft
1500m / 5 km
500 / 1000 ft
800 / 1500m
200 / 500 ft
< 800m
< 200 ft
Simboli :   Temporali  Nebbia  Neve Forte  Precipitazioni Forti  Vento > 20 kt
SIGMETs :   Varie  Temporali  Ghiacco  Turbolenza  Onda orograficha  Ceneri Vulcaniche






- Altitudine del aeroporto : 13 ft
- Codice IATA : GOA


LIMJ - Genoa Cristoforo Colombo

ULTIMO METAR :
  • 282120Z 04023KT 7000 SCT080 10/04 Q1013

METARs OBSOLETI :
  • 282050Z 03022G32KT 8000 SCT080 10/04 Q1012
  • 282020Z 03020KT 9000 FEW080 10/03 Q1013
  • 281950Z 02017KT CAVOK 10/03 Q1013
  • 281920Z 02017G27KT CAVOK 09/04 Q1013
  • 281850Z 02017KT 350V050 CAVOK 09/04 Q1013

TAF TAF LIMJ
Valido dal 28 a 18 ore il 29 a 18 ore UTC


281700Z 2818/2918 03015KT 9999 FEW050
TEMPO 2818/2906 03018G28KT



MetMap, La meteo Aeronautica in un colpo d'occhio ! - Copyright ORBIFLY Dicembre 2007 - Disclaimer

ORBIFLY MET'MAP TEAM :

Programmazione e sviluppo : Alexandra Zaïnal
Concezione : Baudouin d'Aumeries
Aiuto per la programmazione : Marc-Olivier Méhu
Supporto tecnico e logistico : Manuel Goepfert
Aiuto per la traduzione : Arnaldo La Scala

Contatto : metmap@orbifly.com




FONTI E CREDITI :

   NOAA